createdAt,value
2019-03-10T00:01:06.365Z,6.93
2019-03-10T00:03:36.780Z,4.50
2019-03-10T00:06:07.216Z,4.23
2019-03-10T00:08:37.659Z,3.13
2019-03-10T00:11:08.070Z,5.33
2019-03-10T00:13:38.542Z,3.20
2019-03-10T00:16:09.042Z,4.43
2019-03-10T00:18:39.644Z,3.00
2019-03-10T00:21:10.074Z,5.77
2019-03-10T00:23:40.497Z,7.10
2019-03-10T00:26:13.886Z,6.73
2019-03-10T00:28:44.325Z,8.40
2019-03-10T00:31:14.749Z,5.97
2019-03-10T00:33:45.188Z,10.87
2019-03-10T00:36:15.633Z,7.80
2019-03-10T00:39:10.302Z,7.00
2019-03-10T00:42:10.757Z,9.57
2019-03-10T00:45:34.829Z,6.87
2019-03-10T00:48:47.841Z,10.37
2019-03-10T00:52:04.557Z,12.70
2019-03-10T00:54:36.327Z,11.70
2019-03-10T00:57:08.086Z,10.10
2019-03-10T00:59:38.500Z,5.93
2019-03-10T01:02:09.028Z,9.50
2019-03-10T01:04:39.477Z,11.33
2019-03-10T01:07:09.882Z,10.57
2019-03-10T01:09:41.909Z,10.47
2019-03-10T01:12:12.386Z,10.47
2019-03-10T01:14:42.833Z,8.03
2019-03-10T01:17:14.280Z,8.00
2019-03-10T01:19:45.204Z,6.63
2019-03-10T01:22:16.652Z,5.93
2019-03-10T01:24:47.079Z,5.93
2019-03-10T01:27:17.492Z,6.73
2019-03-10T01:29:47.923Z,8.40
2019-03-10T01:33:10.893Z,5.97
2019-03-10T01:35:42.750Z,6.40
2019-03-10T01:38:13.283Z,3.90
2019-03-10T01:40:43.960Z,6.63
2019-03-10T01:43:14.429Z,4.43
2019-03-10T01:45:44.862Z,9.23
2019-03-10T01:48:15.284Z,5.80
2019-03-10T01:50:45.713Z,7.60
2019-03-10T01:53:25.200Z,5.37
2019-03-10T01:55:48.200Z,4.63
2019-03-10T01:58:18.852Z,5.60
2019-03-10T02:00:49.366Z,9.93
2019-03-10T02:03:19.806Z,7.40
2019-03-10T02:05:50.217Z,6.03
2019-03-10T02:08:20.646Z,2.47
2019-03-10T02:10:51.074Z,4.17
2019-03-10T02:13:21.536Z,4.23
2019-03-10T02:15:52.006Z,4.07
2019-03-10T02:18:22.513Z,5.20
2019-03-10T02:20:53.061Z,3.57
2019-03-10T02:23:23.536Z,2.20
2019-03-10T02:25:53.946Z,5.97
2019-03-10T02:28:24.371Z,4.20
2019-03-10T02:30:54.799Z,1.90
2019-03-10T02:33:26.250Z,0.97
2019-03-10T02:35:56.685Z,2.37
2019-03-10T02:38:27.114Z,1.63
2019-03-10T02:40:57.633Z,4.00
2019-03-10T02:43:28.379Z,1.97
2019-03-10T02:45:58.799Z,3.00
2019-03-10T02:48:29.220Z,1.53
2019-03-10T02:50:59.649Z,2.00
2019-03-10T02:53:30.110Z,2.60
2019-03-10T02:56:00.501Z,2.67
2019-03-10T02:58:30.929Z,2.93
2019-03-10T03:01:02.687Z,5.47
2019-03-10T03:03:34.662Z,7.47
2019-03-10T03:06:05.076Z,9.00
2019-03-10T03:08:36.738Z,7.70
2019-03-10T03:11:08.287Z,6.20
2019-03-10T03:13:38.713Z,7.20
2019-03-10T03:16:09.172Z,9.23
2019-03-10T03:18:39.602Z,10.90
2019-03-10T03:21:10.126Z,13.77
2019-03-10T03:23:40.706Z,9.43
2019-03-10T03:26:11.155Z,12.93
2019-03-10T03:28:41.582Z,13.50
2019-03-10T03:31:12.011Z,8.97
2019-03-10T03:33:42.447Z,13.73
2019-03-10T03:36:19.787Z,14.70
2019-03-10T03:38:57.275Z,12.37
2019-03-10T03:41:28.884Z,18.53
2019-03-10T03:43:59.320Z,19.80
2019-03-10T03:46:29.862Z,13.60
2019-03-10T03:49:00.259Z,9.80
2019-03-10T03:51:30.681Z,11.97
2019-03-10T03:54:01.121Z,11.13
2019-03-10T03:56:31.695Z,8.27
2019-03-10T03:59:02.180Z,7.30
2019-03-10T04:01:37.321Z,8.23
2019-03-10T04:04:07.737Z,8.97
2019-03-10T04:06:38.161Z,8.80
2019-03-10T04:09:09.562Z,13.40
2019-03-10T04:11:40.032Z,7.97
2019-03-10T04:14:10.474Z,14.33
2019-03-10T04:16:40.958Z,14.30
2019-03-10T04:19:11.481Z,19.40
2019-03-10T04:21:42.227Z,14.17
2019-03-10T04:24:12.698Z,14.13
2019-03-10T04:26:43.120Z,15.33
2019-03-10T04:29:13.755Z,16.00
2019-03-10T04:31:44.170Z,14.07
2019-03-10T04:34:14.607Z,14.93
2019-03-10T04:36:45.026Z,17.07
2019-03-10T04:39:15.452Z,23.67
2019-03-10T04:41:45.895Z,19.63
2019-03-10T04:44:16.322Z,22.27
2019-03-10T04:46:46.745Z,18.80
2019-03-10T04:49:17.168Z,24.93
2019-03-10T04:51:47.665Z,21.23
2019-03-10T04:54:21.608Z,14.13
2019-03-10T04:56:58.867Z,17.87
2019-03-10T04:59:28.911Z,21.83
2019-03-10T05:01:59.328Z,20.03
2019-03-10T05:04:31.585Z,23.83
2019-03-10T05:07:01.868Z,16.27
2019-03-10T05:09:32.250Z,26.93
2019-03-10T05:12:02.687Z,22.13
2019-03-10T05:14:33.101Z,22.43
2019-03-10T05:17:03.579Z,22.03
2019-03-10T05:19:34.218Z,26.67
2019-03-10T05:22:05.010Z,30.70
2019-03-10T05:24:35.426Z,24.67
2019-03-10T05:27:05.862Z,25.97
2019-03-10T05:29:36.289Z,26.90
2019-03-10T05:32:06.716Z,19.50
2019-03-10T05:34:37.133Z,20.63
2019-03-10T05:37:07.571Z,24.37
2019-03-10T05:39:37.995Z,25.60
2019-03-10T05:42:08.413Z,23.97
2019-03-10T05:44:38.852Z,23.00
2019-03-10T05:47:09.280Z,25.57
2019-03-10T05:49:39.693Z,24.53
2019-03-10T05:52:10.341Z,22.37
2019-03-10T05:54:40.817Z,26.23
2019-03-10T05:57:11.295Z,30.30
2019-03-10T05:59:41.722Z,23.00
2019-03-10T06:02:13.171Z,32.20
2019-03-10T06:04:43.589Z,25.63
2019-03-10T06:07:14.016Z,26.77
2019-03-10T06:09:45.890Z,26.83
2019-03-10T06:12:16.315Z,30.07
2019-03-10T06:14:46.729Z,20.47
2019-03-10T06:17:17.208Z,18.37
2019-03-10T06:19:47.710Z,19.27
2019-03-10T06:22:18.316Z,25.40
2019-03-10T06:24:49.062Z,19.83
2019-03-10T06:27:19.490Z,27.27
2019-03-10T06:29:49.906Z,24.17
2019-03-10T06:32:20.334Z,26.33
2019-03-10T06:34:50.758Z,20.43
2019-03-10T06:37:21.198Z,27.00
2019-03-10T06:39:51.614Z,31.63
2019-03-10T06:42:22.043Z,31.37
2019-03-10T06:44:52.478Z,20.27
2019-03-10T06:47:22.895Z,21.00
2019-03-10T06:49:53.336Z,16.63
2019-03-10T06:52:26.525Z,28.67
2019-03-10T06:54:57.042Z,23.63
2019-03-10T06:57:27.499Z,28.77
2019-03-10T06:59:57.972Z,26.63
2019-03-10T07:02:29.461Z,22.87
2019-03-10T07:04:59.877Z,21.77
2019-03-10T07:07:30.307Z,23.67
2019-03-10T07:10:11.657Z,20.77
2019-03-10T07:12:42.125Z,25.33
2019-03-10T07:15:13.070Z,22.07
2019-03-10T07:17:43.702Z,26.27
2019-03-10T07:20:16.251Z,24.70
2019-03-10T07:22:46.965Z,17.80
2019-03-10T07:25:17.582Z,17.77
2019-03-10T07:27:54.200Z,22.50
2019-03-10T07:30:49.419Z,17.87
2019-03-10T07:33:49.239Z,26.67
2019-03-10T07:36:53.559Z,11.03
2019-03-10T07:39:42.624Z,21.00
2019-03-10T07:42:30.557Z,17.13
2019-03-10T07:45:06.926Z,24.23
2019-03-10T07:48:11.556Z,19.20
2019-03-10T07:51:02.152Z,22.33
2019-03-10T07:53:46.907Z,18.87
2019-03-10T07:56:26.550Z,16.97
2019-03-10T07:59:34.055Z,25.57
2019-03-10T08:02:21.480Z,10.27
2019-03-10T08:05:16.894Z,17.17
2019-03-10T08:08:15.379Z,14.23
2019-03-10T08:11:07.924Z,15.77
2019-03-10T08:13:54.122Z,16.50
2019-03-10T08:16:47.692Z,14.80
2019-03-10T08:20:07.067Z,17.37
2019-03-10T08:23:05.652Z,11.40
2019-03-10T08:26:00.928Z,9.03
2019-03-10T08:28:37.224Z,15.83
2019-03-10T08:31:26.600Z,13.80
2019-03-10T08:34:19.040Z,15.90
2019-03-10T08:37:08.415Z,10.97
2019-03-10T08:39:56.556Z,11.80
2019-03-10T08:42:51.970Z,11.17
2019-03-10T08:45:38.061Z,12.23
2019-03-10T08:48:23.850Z,12.97
2019-03-10T08:51:02.588Z,12.53
2019-03-10T08:53:38.616Z,10.43
2019-03-10T08:56:26.773Z,13.90
2019-03-10T08:59:25.358Z,13.43
2019-03-10T09:02:13.092Z,13.17
2019-03-10T09:05:02.965Z,13.43
2019-03-10T09:07:50.919Z,14.13
2019-03-10T09:10:52.263Z,12.60
2019-03-10T09:13:41.538Z,12.53
2019-03-10T09:16:22.610Z,8.33
2019-03-10T09:19:24.067Z,13.57
2019-03-10T09:22:02.384Z,9.23
2019-03-10T09:24:51.952Z,13.33
2019-03-10T09:28:16.754Z,12.73
2019-03-10T09:31:04.998Z,14.97
2019-03-10T09:33:43.820Z,10.10
2019-03-10T09:36:40.365Z,13.43
2019-03-10T09:39:32.600Z,15.70
2019-03-10T09:42:22.078Z,13.70
2019-03-10T09:45:07.351Z,17.77
2019-03-10T09:47:55.704Z,8.97
2019-03-10T09:50:45.069Z,13.17
2019-03-10T09:53:33.106Z,13.47
2019-03-10T09:56:21.045Z,18.20
2019-03-10T09:59:00.587Z,17.83
2019-03-10T10:01:56.513Z,16.23
2019-03-10T10:04:44.758Z,13.43
2019-03-10T10:07:33.000Z,10.27
2019-03-10T10:10:25.138Z,15.00
2019-03-10T10:13:17.892Z,13.57
2019-03-10T10:15:58.247Z,16.83
2019-03-10T10:19:06.051Z,13.30
2019-03-10T10:22:13.647Z,12.53
2019-03-10T10:25:03.023Z,13.93
2019-03-10T10:28:07.853Z,21.93
2019-03-10T10:31:06.030Z,19.57
2019-03-10T10:33:54.995Z,13.27
2019-03-10T10:36:56.446Z,18.87
2019-03-10T10:39:48.786Z,15.83
2019-03-10T10:42:36.827Z,16.87
2019-03-10T10:45:29.169Z,16.07
2019-03-10T10:48:09.629Z,17.90
2019-03-10T10:51:14.676Z,12.50
2019-03-10T10:54:00.043Z,14.37
2019-03-10T10:56:39.492Z,21.82
2019-03-10T10:59:38.071Z,21.70
2019-03-10T11:02:17.714Z,16.20
2019-03-10T11:04:56.749Z,18.82
2019-03-10T11:07:42.848Z,20.10
2019-03-10T11:10:38.250Z,18.80
2019-03-10T11:13:40.022Z,15.63
2019-03-10T11:16:19.348Z,17.00
2019-03-10T11:18:56.533Z,15.83
2019-03-10T11:21:36.488Z,16.23
2019-03-10T11:24:15.000Z,18.83
2019-03-10T11:27:07.238Z,16.50
2019-03-10T11:29:51.890Z,17.47
2019-03-10T11:32:45.570Z,19.70
2019-03-10T11:35:40.888Z,18.33
2019-03-10T11:38:33.324Z,13.30
2019-03-10T11:41:33.391Z,13.43
2019-03-10T11:44:14.942Z,14.98
2019-03-10T11:46:56.923Z,19.20
2019-03-10T11:50:01.563Z,15.08
2019-03-10T11:52:37.325Z,12.10
2019-03-10T11:55:25.989Z,13.22
2019-03-10T11:58:08.979Z,12.95
2019-03-10T12:00:45.049Z,15.48
2019-03-10T12:03:31.961Z,15.03
2019-03-10T12:06:24.086Z,15.78
2019-03-10T12:09:16.233Z,12.03
2019-03-10T12:11:46.659Z,15.05
2019-03-10T12:14:17.080Z,13.53
2019-03-10T12:16:47.502Z,12.35
2019-03-10T12:19:17.981Z,11.60
2019-03-10T12:21:48.677Z,13.83
2019-03-10T12:24:19.095Z,17.98
2019-03-10T12:26:53.413Z,11.53
2019-03-10T12:29:23.850Z,14.20
2019-03-10T12:31:54.266Z,13.15
2019-03-10T12:34:24.701Z,12.85
2019-03-10T12:36:55.174Z,17.15
2019-03-10T12:39:25.656Z,15.00
2019-03-10T12:41:58.742Z,14.90
2019-03-10T12:44:30.522Z,14.58
2019-03-10T12:47:00.267Z,14.45
2019-03-10T12:49:30.746Z,12.63
2019-03-10T12:52:02.209Z,12.87
2019-03-10T12:54:32.612Z,15.70
2019-03-10T12:57:03.037Z,14.05
2019-03-10T12:59:33.468Z,15.45
2019-03-10T13:02:04.929Z,16.60
2019-03-10T13:04:35.381Z,14.27
2019-03-10T13:07:07.003Z,16.53
2019-03-10T13:09:37.484Z,15.70
2019-03-10T13:12:07.968Z,14.00
2019-03-10T13:14:38.386Z,15.23
2019-03-10T13:17:08.812Z,16.93
2019-03-10T13:19:39.279Z,11.63
2019-03-10T13:22:10.600Z,11.20
2019-03-10T13:24:41.024Z,13.40
2019-03-10T13:27:11.554Z,9.80
2019-03-10T13:29:41.981Z,10.50
2019-03-10T13:32:12.511Z,12.30
2019-03-10T13:34:42.929Z,5.33
2019-03-10T13:37:13.354Z,11.63
2019-03-10T13:39:44.104Z,10.40
2019-03-10T13:42:15.536Z,7.03
2019-03-10T13:44:45.965Z,8.40
2019-03-10T13:47:16.392Z,9.87
2019-03-10T13:49:46.818Z,10.57
2019-03-10T13:52:17.257Z,8.23
2019-03-10T13:54:47.681Z,9.93
2019-03-10T13:57:18.111Z,10.43
2019-03-10T13:59:48.538Z,12.67
2019-03-10T14:02:18.952Z,8.00
2019-03-10T14:04:49.393Z,10.13
2019-03-10T14:07:19.805Z,6.67
2019-03-10T14:09:50.233Z,7.00
2019-03-10T14:12:20.688Z,7.30
2019-03-10T14:14:51.090Z,7.53
2019-03-10T14:17:21.516Z,9.03
2019-03-10T14:19:51.983Z,7.37
2019-03-10T14:22:22.632Z,7.05
2019-03-10T14:24:53.101Z,7.40
2019-03-10T14:27:23.745Z,5.72
2019-03-10T14:29:54.478Z,9.08
2019-03-10T14:32:24.893Z,5.37
2019-03-10T14:34:55.426Z,8.75
2019-03-10T14:37:25.853Z,5.92
2019-03-10T14:39:56.289Z,6.87
2019-03-10T14:42:26.762Z,6.30
2019-03-10T14:44:57.238Z,8.03
2019-03-10T14:47:27.674Z,6.07
2019-03-10T14:49:58.104Z,6.80
2019-03-10T14:52:31.906Z,9.97
2019-03-10T14:55:02.337Z,7.63
2019-03-10T14:57:32.748Z,8.60
2019-03-10T15:00:03.202Z,7.77
2019-03-10T15:02:35.257Z,10.00
2019-03-10T15:05:05.790Z,10.55
2019-03-10T15:07:37.340Z,8.38
2019-03-10T15:10:08.013Z,12.85
2019-03-10T15:12:38.508Z,11.25
2019-03-10T15:15:09.734Z,8.43
2019-03-10T15:17:40.158Z,11.45
2019-03-10T15:20:11.390Z,8.90
2019-03-10T15:22:41.990Z,6.30
2019-03-10T15:25:13.131Z,7.80
2019-03-10T15:27:43.724Z,8.83
2019-03-10T15:30:16.750Z,8.78
2019-03-10T15:32:47.330Z,10.88
2019-03-10T15:35:17.868Z,13.65
2019-03-10T15:37:48.286Z,10.97
2019-03-10T15:40:18.718Z,14.20
2019-03-10T15:42:49.155Z,9.33
2019-03-10T15:45:19.998Z,12.30
2019-03-10T15:47:50.447Z,8.88
2019-03-10T15:50:22.932Z,10.45
2019-03-10T15:52:53.423Z,9.73
2019-03-10T15:55:23.846Z,11.80
2019-03-10T15:57:54.268Z,8.43
2019-03-10T16:00:24.974Z,8.73
2019-03-10T16:02:55.453Z,10.30
2019-03-10T16:05:26.030Z,9.97
2019-03-10T16:07:56.482Z,7.27
2019-03-10T16:10:26.910Z,11.47
2019-03-10T16:12:57.333Z,11.73
2019-03-10T16:15:27.965Z,11.67
2019-03-10T16:17:58.555Z,9.07
2019-03-10T16:20:29.038Z,9.43
2019-03-10T16:22:59.610Z,12.13
2019-03-10T16:25:30.138Z,9.67
2019-03-10T16:28:00.720Z,10.37
2019-03-10T16:30:31.176Z,7.93
2019-03-10T16:33:01.875Z,10.73
2019-03-10T16:35:32.317Z,8.80
2019-03-10T16:38:02.729Z,11.47
2019-03-10T16:40:33.168Z,17.50
2019-03-10T16:43:03.704Z,10.60
2019-03-10T16:45:34.433Z,12.20
2019-03-10T16:48:05.006Z,10.70
2019-03-10T16:50:35.485Z,8.47
2019-03-10T16:53:06.020Z,8.57
2019-03-10T16:55:36.653Z,8.10
2019-03-10T16:58:07.070Z,9.80
2019-03-10T17:00:37.506Z,6.43
2019-03-10T17:03:32.357Z,9.37
2019-03-10T17:06:02.948Z,10.63
2019-03-10T17:08:33.364Z,11.40
2019-03-10T17:11:03.790Z,7.50
2019-03-10T17:13:34.327Z,12.97
2019-03-10T17:16:05.042Z,13.27
2019-03-10T17:18:35.741Z,12.30
2019-03-10T17:21:06.217Z,12.40
2019-03-10T17:23:36.670Z,19.83
2019-03-10T17:26:07.282Z,8.83
2019-03-10T17:28:37.910Z,11.17
2019-03-10T17:31:09.175Z,8.97
2019-03-10T17:33:39.671Z,8.63
2019-03-10T17:36:10.110Z,8.87
2019-03-10T17:38:40.555Z,11.53
2019-03-10T17:41:10.962Z,9.60
2019-03-10T17:43:41.493Z,8.07
2019-03-10T17:46:11.917Z,14.10
2019-03-10T17:48:42.551Z,9.47
2019-03-10T17:51:13.338Z,7.50
2019-03-10T17:53:43.821Z,10.10
2019-03-10T17:56:14.451Z,7.50
2019-03-10T17:58:45.157Z,9.00
2019-03-10T18:01:15.614Z,10.07
2019-03-10T18:03:46.100Z,8.60
2019-03-10T18:06:16.563Z,9.20
2019-03-10T18:08:47.094Z,15.80
2019-03-10T18:11:17.508Z,16.27
2019-03-10T18:13:47.951Z,13.33
2019-03-10T18:16:18.374Z,11.23
2019-03-10T18:18:48.790Z,11.73
2019-03-10T18:21:19.540Z,10.30
2019-03-10T18:23:49.976Z,12.97
2019-03-10T18:26:20.596Z,15.93
2019-03-10T18:28:51.180Z,11.50
2019-03-10T18:31:21.642Z,16.30
2019-03-10T18:33:52.078Z,8.37
2019-03-10T18:36:22.697Z,9.90
2019-03-10T18:38:53.137Z,10.67
2019-03-10T18:41:23.758Z,9.20
2019-03-10T18:43:54.188Z,11.07
2019-03-10T18:46:24.616Z,13.30
2019-03-10T18:48:55.051Z,8.47
2019-03-10T18:51:25.478Z,8.93
2019-03-10T18:53:55.919Z,14.97
2019-03-10T18:56:26.338Z,13.27
2019-03-10T18:58:56.757Z,11.20
2019-03-10T19:01:27.185Z,10.83
2019-03-10T19:03:57.602Z,8.57
2019-03-10T19:06:28.042Z,10.60
2019-03-10T19:09:55.914Z,13.30
2019-03-10T19:12:26.332Z,10.47
2019-03-10T19:14:56.758Z,11.97
2019-03-10T19:17:27.299Z,7.70
2019-03-10T19:19:57.709Z,8.77
2019-03-10T19:22:28.323Z,13.07
2019-03-10T19:24:58.825Z,10.40
2019-03-10T19:27:30.464Z,15.83
2019-03-10T19:30:01.161Z,20.17
2019-03-10T19:32:31.589Z,16.87
2019-03-10T19:35:02.013Z,10.00
2019-03-10T19:37:32.454Z,14.17
2019-03-10T19:40:02.874Z,14.70
2019-03-10T19:42:33.308Z,12.70
2019-03-10T19:45:03.723Z,15.17
2019-03-10T19:47:34.148Z,12.93
2019-03-10T19:50:04.782Z,10.90
2019-03-10T19:52:35.428Z,11.40
2019-03-10T19:55:07.226Z,12.33
2019-03-10T19:57:37.752Z,14.87
2019-03-10T20:00:10.495Z,12.03
2019-03-10T20:02:40.922Z,15.10
2019-03-10T20:05:11.390Z,13.03
2019-03-10T20:07:41.876Z,12.93
2019-03-10T20:10:13.331Z,15.53
2019-03-10T20:12:43.757Z,10.20
2019-03-10T20:15:17.772Z,10.23
2019-03-10T20:17:48.307Z,13.40
2019-03-10T20:20:18.930Z,8.60
2019-03-10T20:22:49.368Z,13.07
2019-03-10T20:25:19.987Z,8.07
2019-03-10T20:27:51.856Z,11.47
2019-03-10T20:30:22.408Z,11.00
2019-03-10T20:32:53.052Z,11.63
2019-03-10T20:35:23.562Z,17.23
2019-03-10T20:37:53.953Z,11.87
2019-03-10T20:40:24.392Z,12.37
2019-03-10T20:42:54.925Z,10.87
2019-03-10T20:45:28.386Z,10.37
2019-03-10T20:47:58.848Z,10.67
2019-03-10T20:50:29.266Z,11.37
2019-03-10T20:52:59.689Z,10.27
2019-03-10T20:55:30.133Z,15.40
2019-03-10T20:58:00.544Z,10.00
2019-03-10T21:00:31.022Z,8.70
2019-03-10T21:03:01.501Z,14.13
2019-03-10T21:05:31.930Z,8.03
2019-03-10T21:08:02.429Z,6.70
2019-03-10T21:10:32.906Z,4.47
2019-03-10T21:13:03.410Z,3.07
2019-03-10T21:15:33.851Z,6.17
2019-03-10T21:18:04.333Z,7.43
2019-03-10T21:20:34.822Z,4.70
2019-03-10T21:23:05.325Z,4.33
2019-03-10T21:25:35.795Z,6.10
2019-03-10T21:28:06.329Z,10.30
2019-03-10T21:30:36.971Z,6.73
2019-03-10T21:33:07.456Z,6.00
2019-03-10T21:35:37.870Z,8.23
2019-03-10T21:38:08.411Z,6.10
2019-03-10T21:40:41.733Z,7.93
2019-03-10T21:43:12.557Z,9.10
2019-03-10T21:45:43.057Z,6.17
2019-03-10T21:48:22.188Z,6.67
2019-03-10T21:50:52.634Z,6.27
2019-03-10T21:53:24.137Z,6.10
2019-03-10T21:55:54.905Z,7.33
2019-03-10T21:58:25.352Z,6.27
2019-03-10T22:00:55.758Z,4.40
2019-03-10T22:03:26.347Z,6.87
2019-03-10T22:05:56.918Z,9.03
2019-03-10T22:08:27.364Z,5.40
2019-03-10T22:10:57.787Z,7.23
2019-03-10T22:13:28.201Z,5.80
2019-03-10T22:16:00.952Z,4.17
2019-03-10T22:18:32.753Z,8.77
2019-03-10T22:21:03.209Z,6.23
2019-03-10T22:23:33.594Z,8.17
2019-03-10T22:26:04.096Z,5.90
2019-03-10T22:28:34.621Z,4.37
2019-03-10T22:31:05.084Z,8.83
2019-03-10T22:33:35.732Z,7.87
2019-03-10T22:36:06.254Z,9.60
2019-03-10T22:38:37.779Z,4.77
2019-03-10T22:41:08.233Z,7.87
2019-03-10T22:43:38.650Z,6.47
2019-03-10T22:46:09.075Z,11.03
2019-03-10T22:48:39.504Z,9.33
2019-03-10T22:51:09.941Z,10.83
2019-03-10T22:53:40.369Z,11.77
2019-03-10T22:56:10.787Z,9.77
2019-03-10T22:58:41.223Z,21.60
2019-03-10T23:01:11.854Z,12.93
2019-03-10T23:03:42.270Z,6.93
2019-03-10T23:06:12.728Z,5.77
2019-03-10T23:08:43.121Z,8.90
2019-03-10T23:11:13.549Z,7.37
2019-03-10T23:13:43.978Z,11.00
2019-03-10T23:16:14.419Z,12.00
2019-03-10T23:18:44.835Z,15.50
2019-03-10T23:21:15.257Z,13.90
2019-03-10T23:23:45.686Z,9.53
2019-03-10T23:26:16.269Z,11.57
2019-03-10T23:28:46.858Z,13.33
2019-03-10T23:31:17.449Z,13.07
2019-03-10T23:33:47.905Z,10.63
2019-03-10T23:36:18.389Z,14.10
2019-03-10T23:38:48.872Z,7.33
2019-03-10T23:41:19.291Z,7.27
2019-03-10T23:43:49.935Z,13.03
2019-03-10T23:46:20.361Z,21.33
2019-03-10T23:48:50.772Z,12.87
2019-03-10T23:51:21.209Z,17.53
2019-03-10T23:53:51.729Z,18.20
2019-03-10T23:56:22.173Z,13.17
2019-03-10T23:58:52.592Z,21.50
